Time;durP1;ratioP1;P1;durP2;ratioP2;P2;SDS_P1;SDS_P2;PMS_P1;PMS_P2;Temp;Humidity;BMP_temperature;BMP_pressure;BME280_temperature;BME280_humidity;BME280_pressure;Samples;Min_cycle;Max_cycle;Signal;HPM_P1;HPM_P2
2021/04/13 00:00:49;;;;;;;3.92;2.40;;;;;;;0.47;80.17;101821.28;4999203;28;20038;-71
2021/04/13 00:03:14;;;;;;;4.88;2.50;;;;;;;0.43;80.04;101814.53;5010022;28;20103;-70
2021/04/13 00:05:46;;;;;;;3.72;2.20;;;;;;;0.38;79.82;101817.28;5009617;28;20422;-71
2021/04/13 00:08:17;;;;;;;3.05;2.08;;;;;;;0.34;81.20;101818.28;4991900;28;20037;-71
2021/04/13 00:10:52;;;;;;;3.08;2.30;;;;;;;0.31;80.00;101812.34;4992215;28;20072;-70
2021/04/13 00:13:20;;;;;;;3.42;2.22;;;;;;;0.36;79.68;101821.69;4998842;28;20410;-71
2021/04/13 00:15:51;;;;;;;3.35;2.30;;;;;;;0.42;81.67;101821.44;5004442;28;20557;-71
2021/04/13 00:18:25;;;;;;;2.85;2.20;;;;;;;0.53;80.95;101822.84;4994491;28;20402;-71
2021/04/13 00:21:21;;;;;;;2.83;2.00;;;;;;;0.46;77.30;101824.81;5003736;28;20041;-70
2021/04/13 00:23:47;;;;;;;4.05;2.30;;;;;;;0.38;80.01;101821.63;4996488;28;20045;-71
2021/04/13 00:26:21;;;;;;;5.10;2.70;;;;;;;0.28;80.65;101812.44;5009003;28;20038;-71
2021/04/13 00:28:48;;;;;;;3.25;2.42;;;;;;;0.20;79.48;101820.53;5009398;28;20561;-71
2021/04/13 00:31:19;;;;;;;4.00;2.60;;;;;;;0.17;82.47;101826.69;5007510;28;20351;-71
2021/04/13 00:33:45;;;;;;;4.20;2.55;;;;;;;0.24;81.75;101814.31;5009535;28;20080;-71
2021/04/13 00:36:15;;;;;;;3.25;2.10;;;;;;;0.37;81.04;101814.72;5005474;28;20546;-72
2021/04/13 00:38:46;;;;;;;3.65;2.88;;;;;;;0.30;80.92;101819.28;5000949;28;20037;-71
2021/04/13 00:41:17;;;;;;;3.33;2.30;;;;;;;0.31;81.94;101820.13;5002340;28;20033;-71
2021/04/13 00:43:47;;;;;;;4.47;2.80;;;;;;;0.43;78.07;101809.31;5011029;28;20100;-71
2021/04/13 00:46:19;;;;;;;4.50;2.85;;;;;;;0.45;77.25;101801.44;5008862;28;20124;-72
2021/04/13 00:48:45;;;;;;;4.03;2.65;;;;;;;0.44;77.14;101803.19;5003635;28;20034;-71
2021/04/13 00:51:32;;;;;;;3.38;2.40;;;;;;;0.45;77.93;101807.47;5009788;28;20045;-71
2021/04/13 00:54:04;;;;;;;2.97;2.30;;;;;;;0.36;80.03;101803.47;4986587;28;20050;-72
2021/04/13 00:56:31;;;;;;;3.70;2.55;;;;;;;0.25;78.00;101804.75;5008386;28;20095;-72
2021/04/13 00:59:02;;;;;;;3.67;2.70;;;;;;;0.34;76.88;101814.84;5009051;28;20033;-72
2021/04/13 01:01:35;;;;;;;3.55;2.55;;;;;;;0.34;79.72;101813.09;5006087;28;20045;-72
2021/04/13 01:04:08;;;;;;;3.22;2.60;;;;;;;0.35;80.27;101819.13;5008318;28;20038;-71
2021/04/13 01:06:35;;;;;;;3.30;2.40;;;;;;;0.30;78.11;101814.09;4997350;28;20376;-72
2021/04/13 01:09:18;;;;;;;3.80;2.85;;;;;;;0.37;77.38;101815.56;5003759;28;20050;-72
2021/04/13 01:11:52;;;;;;;3.65;3.00;;;;;;;0.50;76.26;101813.41;5008322;28;20038;-71
2021/04/13 01:14:19;;;;;;;4.72;2.58;;;;;;;0.53;76.28;101812.44;5001764;28;20069;-72
2021/04/13 01:16:54;;;;;;;2.90;2.15;;;;;;;0.53;78.01;101813.28;4986010;28;20034;-72
2021/04/13 01:19:29;;;;;;;3.03;2.40;;;;;;;0.46;76.76;101810.97;5006716;28;20395;-72
2021/04/13 01:22:07;;;;;;;3.10;2.30;;;;;;;0.42;77.37;101803.25;4991494;28;20515;-72
2021/04/13 01:24:44;;;;;;;3.33;2.30;;;;;;;0.48;76.84;101817.81;5007081;28;20507;-72
2021/04/13 01:27:12;;;;;;;2.95;2.20;;;;;;;0.54;76.54;101817.56;5012683;28;20124;-72
2021/04/13 01:29:39;;;;;;;3.25;2.70;;;;;;;0.61;76.02;101819.03;5008971;28;20054;-71
2021/04/13 01:32:06;;;;;;;2.95;2.40;;;;;;;0.61;75.59;101816.44;5004546;28;20222;-71
2021/04/13 01:34:43;;;;;;;3.75;2.40;;;;;;;0.57;76.32;101821.81;5011539;28;20081;-71
2021/04/13 01:40:17;;;;;;;2.85;2.10;;;;;;;0.56;76.45;101823.56;5008730;28;20026;-71
2021/04/13 01:42:35;;;;;;;4.20;3.30;;;;;;;0.63;75.18;101821.59;5004790;28;20030;-71
2021/04/13 01:45:13;;;;;;;4.50;3.22;;;;;;;0.62;74.67;101825.97;5012181;28;20561;-71
2021/04/13 01:47:38;;;;;;;4.60;3.05;;;;;;;0.55;75.36;101826.22;5011968;28;20030;-71
2021/04/13 01:50:08;;;;;;;5.10;2.50;;;;;;;0.48;77.26;101832.53;4994999;28;20050;-71
2021/04/13 01:52:40;;;;;;;7.13;3.30;;;;;;;0.59;75.23;101831.25;5012409;28;20045;-71
2021/04/13 01:55:26;;;;;;;4.75;3.30;;;;;;;0.46;75.96;101824.81;5004945;28;20061;-71
2021/04/13 01:57:52;;;;;;;3.80;3.10;;;;;;;0.48;75.48;101825.63;5005438;28;20038;-71
2021/04/13 02:00:36;;;;;;;3.80;2.80;;;;;;;0.31;78.51;101823.59;5011694;28;20045;-71
2021/04/13 02:03:07;;;;;;;4.03;2.97;;;;;;;0.14;78.32;101841.53;4994735;28;20034;-70
2021/04/13 02:05:34;;;;;;;;;;;;;;;0.04;81.22;101837.56;5012690;28;20125;-70
2021/04/13 02:08:17;;;;;;;3.63;2.90;;;;;;;-0.03;79.79;101837.75;5011166;28;19956;-70
2021/04/13 02:11:07;;;;;;;3.80;2.97;;;;;;;-0.04;80.37;101843.03;5007464;28;20052;-71
2021/04/13 02:13:54;;;;;;;4.63;2.83;;;;;;;-0.12;80.81;101845.00;4997123;28;20041;-70
2021/04/13 02:16:31;;;;;;;4.00;2.83;;;;;;;-0.08;80.26;101842.25;5012101;28;20037;-71
2021/04/13 02:18:56;;;;;;;4.10;2.92;;;;;;;-0.09;81.95;101840.56;5012186;28;20038;-71
2021/04/13 02:21:31;;;;;;;3.78;2.80;;;;;;;0.01;81.71;101845.47;4996001;28;20046;-70
2021/04/13 02:24:00;;;;;;;4.63;3.88;;;;;;;0.01;81.86;101848.91;5005950;28;20045;-71
2021/04/13 02:26:26;;;;;;;5.15;3.10;;;;;;;0.04;80.83;101851.41;5005272;28;20057;-70
2021/04/13 02:28:52;;;;;;;4.80;3.22;;;;;;;0.02;80.93;101853.19;5011733;28;20061;-71
2021/04/13 02:31:37;;;;;;;4.38;3.25;;;;;;;0.04;79.47;101853.16;5004870;28;20042;-71
2021/04/13 02:34:13;;;;;;;4.18;3.25;;;;;;;0.05;80.43;101847.03;5005091;28;20441;-70
2021/04/13 02:36:40;;;;;;;4.35;3.22;;;;;;;0.14;77.90;101849.34;5007643;28;20093;-70
2021/04/13 02:39:11;;;;;;;4.18;2.97;;;;;;;0.13;78.04;101855.44;5005662;28;20037;-70
2021/04/13 02:41:45;;;;;;;3.50;3.10;;;;;;;0.11;78.05;101860.69;5004682;28;20484;-70
2021/04/13 02:44:14;;;;;;;4.00;2.97;;;;;;;0.08;78.38;101859.97;5011280;28;20493;-71
2021/04/13 02:46:40;;;;;;;4.53;3.47;;;;;;;0.08;77.67;101855.59;5011187;28;20034;-71
2021/04/13 02:49:10;;;;;;;4.07;3.25;;;;;;;0.01;78.09;101856.72;5009171;28;20298;-73
2021/04/13 02:51:39;;;;;;;6.10;3.80;;;;;;;0.08;77.50;101858.22;5011027;28;20117;-71
2021/04/13 02:54:17;;;;;;;6.40;4.60;;;;;;;0.08;77.69;101866.00;5010941;28;20038;-73
2021/04/13 02:56:45;;;;;;;5.72;3.90;;;;;;;0.07;77.13;101861.72;5009836;28;20432;-72
2021/04/13 02:59:13;;;;;;;4.22;3.25;;;;;;;0.03;79.22;101862.72;5005911;28;20061;-71
2021/04/13 03:01:42;;;;;;;4.43;2.97;;;;;;;0.00;80.02;101857.63;5003603;28;20042;-71
2021/04/13 03:04:09;;;;;;;6.10;3.85;;;;;;;-0.09;81.17;101861.38;5003242;28;20046;-72
2021/04/13 03:06:43;;;;;;;4.63;3.20;;;;;;;-0.14;81.24;101859.81;5009174;28;20034;-71
2021/04/13 03:09:09;;;;;;;5.00;3.78;;;;;;;-0.20;80.39;101862.63;5004070;28;20105;-71
2021/04/13 03:11:36;;;;;;;4.70;3.60;;;;;;;-0.23;82.07;101860.97;5003354;28;20034;-71
2021/04/13 03:14:04;;;;;;;5.93;3.25;;;;;;;-0.18;79.94;101866.03;5009255;28;20092;-71
2021/04/13 03:16:36;;;;;;;5.03;2.92;;;;;;;-0.19;79.31;101862.59;5007810;28;20046;-72
2021/04/13 03:19:07;;;;;;;5.72;4.18;;;;;;;-0.22;81.19;101863.50;5001658;28;20034;-71
2021/04/13 03:21:35;;;;;;;5.00;3.80;;;;;;;-0.30;79.25;101870.72;5007902;28;20684;-71
2021/04/13 03:24:06;;;;;;;6.20;4.13;;;;;;;-0.33;80.33;101864.78;5004222;28;20045;-73
2021/04/13 03:26:37;;;;;;;5.30;3.95;;;;;;;-0.32;79.64;101866.47;5001486;28;20033;-72
2021/04/13 03:29:11;;;;;;;5.70;4.25;;;;;;;-0.29;82.42;101867.19;4988624;28;20038;-71
2021/04/13 03:31:38;;;;;;;5.95;4.40;;;;;;;-0.23;79.53;101869.63;5003816;28;20030;-72
2021/04/13 03:34:05;;;;;;;5.30;4.05;;;;;;;-0.25;79.96;101870.56;5005145;28;20038;-71
2021/04/13 03:36:32;;;;;;;4.90;3.60;;;;;;;-0.18;80.04;101873.81;5000081;28;20120;-71
2021/04/13 03:39:02;;;;;;;5.00;4.07;;;;;;;-0.17;78.88;101870.31;5004091;28;20045;-71
2021/04/13 03:41:28;;;;;;;7.97;5.47;;;;;;;-0.16;78.71;101874.63;4993204;28;20060;-71
2021/04/13 03:44:03;;;;;;;6.00;5.13;;;;;;;-0.26;79.43;101868.88;5010071;28;20034;-72
2021/04/13 03:46:37;;;;;;;5.85;4.53;;;;;;;-0.23;80.56;101874.81;4991423;28;20377;-71
2021/04/13 03:49:06;;;;;;;6.93;4.97;;;;;;;-0.25;81.21;101875.75;5010125;28;20125;-71
2021/04/13 03:51:40;;;;;;;7.25;5.15;;;;;;;-0.23;82.71;101880.00;5009605;28;20026;-71
2021/04/13 03:54:18;;;;;;;7.15;4.88;;;;;;;-0.30;79.58;101875.91;5010039;28;20061;-73
2021/04/13 03:56:43;;;;;;;8.05;5.50;;;;;;;-0.43;82.00;101888.44;5010082;28;20116;-71
2021/04/13 03:59:20;;;;;;;7.13;5.15;;;;;;;-0.49;81.73;101888.63;5010662;28;20634;-72
2021/04/13 04:01:47;;;;;;;8.13;5.60;;;;;;;-0.58;81.12;101888.06;4992378;28;20103;-71
2021/04/13 04:04:32;;;;;;;6.72;5.03;;;;;;;-0.63;82.77;101889.94;5009595;28;20073;-71
2021/04/13 04:07:05;;;;;;;6.45;4.82;;;;;;;-0.62;83.38;101899.44;5011316;28;20081;-71
2021/04/13 04:09:31;;;;;;;6.18;4.97;;;;;;;-0.64;83.51;101886.50;5000446;28;20034;-71
2021/04/13 04:12:03;;;;;;;6.55;5.25;;;;;;;-0.69;83.34;101893.56;5004088;28;20149;-71
2021/04/13 04:14:29;;;;;;;7.03;5.30;;;;;;;-0.73;82.26;101895.41;5002986;28;20037;-71
2021/04/13 04:17:15;;;;;;;7.28;5.38;;;;;;;-0.70;84.37;101892.72;5002949;28;20076;-71
2021/04/13 04:19:52;;;;;;;6.95;5.50;;;;;;;-0.78;81.44;101905.09;5004190;28;20277;-71
2021/04/13 04:22:19;;;;;;;6.47;4.57;;;;;;;-0.72;81.06;101904.06;5009300;28;20179;-71
2021/04/13 04:24:45;;;;;;;9.23;5.97;;;;;;;-0.77;82.00;101905.94;5009814;28;20077;-71
2021/04/13 04:27:13;;;;;;;6.45;4.20;;;;;;;-0.73;81.36;101905.81;4991161;28;20334;-71
2021/04/13 04:29:40;;;;;;;8.20;5.53;;;;;;;-0.82;82.91;101906.06;5010287;28;20380;-71
2021/04/13 04:32:19;;;;;;;7.00;5.25;;;;;;;-0.88;82.22;101906.28;5008569;28;20042;-71
2021/04/13 04:34:44;;;;;;;8.40;5.68;;;;;;;-0.76;82.29;101911.09;5009230;28;20176;-71
2021/04/13 04:37:28;;;;;;;6.88;5.35;;;;;;;-0.79;84.11;101918.97;4990818;28;20117;-71
2021/04/13 04:40:18;;;;;;;6.65;4.65;;;;;;;-0.73;82.99;101917.94;4988716;28;20070;-71
2021/04/13 04:43:04;;;;;;;7.28;5.20;;;;;;;-0.71;81.90;101918.75;4997615;28;20182;-71
2021/04/13 04:45:45;;;;;;;7.28;5.03;;;;;;;-0.70;83.12;101907.47;4991363;28;20041;-71
2021/04/13 04:48:19;;;;;;;7.65;5.45;;;;;;;-0.71;83.54;101918.75;5008326;28;20061;-71
2021/04/13 04:50:46;;;;;;;9.45;6.63;;;;;;;-0.61;80.96;101916.72;5009562;28;20033;-71
2021/04/13 04:53:13;;;;;;;7.65;5.38;;;;;;;-0.57;81.17;101914.00;5009320;28;20042;-71
2021/04/13 04:55:38;;;;;;;6.18;5.25;;;;;;;-0.54;81.25;101928.66;5009249;28;20033;-71
2021/04/13 04:58:03;;;;;;;7.07;5.40;;;;;;;-0.52;81.11;101917.31;5001262;28;20035;-71
2021/04/13 05:00:29;;;;;;;6.60;4.90;;;;;;;-0.49;81.44;101922.41;5001314;28;20052;-71
2021/04/13 05:02:54;;;;;;;9.80;7.30;;;;;;;-0.39;79.72;101925.56;4991243;28;20072;-71
2021/04/13 05:05:19;;;;;;;9.88;6.45;;;;;;;-0.40;80.15;101930.84;5009404;28;20649;-71
2021/04/13 05:07:45;;;;;;;10.85;7.20;;;;;;;-0.40;79.50;101933.44;4990956;28;20027;-71
2021/04/13 05:10:11;;;;;;;10.38;7.00;;;;;;;-0.41;79.02;101935.16;5008631;28;20072;-73
2021/04/13 05:12:36;;;;;;;8.93;6.30;;;;;;;-0.41;79.14;101932.56;5003478;28;20403;-71
2021/04/13 05:15:01;;;;;;;8.85;6.68;;;;;;;-0.38;79.32;101945.47;5004980;28;20042;-71
2021/04/13 05:17:27;;;;;;;8.30;6.10;;;;;;;-0.35;79.51;101950.56;5004824;28;20038;-71
2021/04/13 05:19:52;;;;;;;9.10;6.68;;;;;;;-0.22;79.47;101951.88;5008786;28;20187;-71
2021/04/13 05:22:17;;;;;;;7.72;5.90;;;;;;;-0.05;79.08;101950.50;4998673;28;20399;-71
2021/04/13 05:24:43;;;;;;;8.05;6.05;;;;;;;0.09;78.80;101950.91;5000817;28;20113;-71
2021/04/13 05:27:09;;;;;;;7.70;5.57;;;;;;;0.23;78.71;101955.69;5005185;28;20391;-71
2021/04/13 05:29:34;;;;;;;8.00;5.00;;;;;;;0.40;77.79;101960.31;5008461;28;20038;-71
2021/04/13 05:31:59;;;;;;;7.72;5.68;;;;;;;0.50;76.88;101960.88;5008709;28;20096;-71
2021/04/13 05:34:25;;;;;;;9.27;6.00;;;;;;;0.62;77.02;101970.84;4988094;28;20626;-71
2021/04/13 05:36:53;;;;;;;8.88;5.80;;;;;;;0.76;77.10;101965.19;5008315;28;20030;-71
2021/04/13 05:39:20;;;;;;;7.68;5.70;;;;;;;1.13;77.93;101969.94;5007603;28;20030;-71
2021/04/13 05:41:45;;;;;;;6.50;5.00;;;;;;;1.49;75.58;101970.34;5004643;28;20048;-71
2021/04/13 05:44:10;;;;;;;7.68;4.80;;;;;;;1.85;74.13;101972.44;5009496;28;20128;-71
2021/04/13 05:46:37;;;;;;;7.53;5.50;;;;;;;2.28;73.77;101970.72;5008788;28;20026;-71
2021/04/13 05:49:03;;;;;;;7.43;4.60;;;;;;;2.55;72.60;101971.34;5007765;28;20057;-71
2021/04/13 05:51:29;;;;;;;7.43;5.75;;;;;;;2.85;71.03;101976.19;5007872;28;20033;-71
2021/04/13 05:53:55;;;;;;;6.68;4.75;;;;;;;3.15;69.14;101983.59;4989755;28;20120;-69
2021/04/13 05:56:28;;;;;;;7.22;5.00;;;;;;;3.57;71.75;101982.56;5007492;28;20048;-71
2021/04/13 05:58:55;;;;;;;8.23;5.88;;;;;;;3.91;71.06;101980.97;4990586;28;20030;-70
2021/04/13 06:01:23;;;;;;;5.75;4.70;;;;;;;4.12;70.13;101984.34;5008230;28;20077;-73
2021/04/13 06:03:48;;;;;;;8.93;6.20;;;;;;;4.33;67.40;101983.28;5007959;28;20106;-73
2021/04/13 06:06:14;;;;;;;6.93;4.78;;;;;;;4.49;63.70;101979.94;4987578;28;20042;-73
2021/04/13 06:08:40;;;;;;;5.65;4.18;;;;;;;4.71;66.77;101985.78;5003513;28;20110;-75
2021/04/13 06:11:06;;;;;;;5.88;3.90;;;;;;;5.08;64.82;101989.13;4995924;28;20034;-73
2021/04/13 06:13:32;;;;;;;5.72;4.43;;;;;;;5.43;64.17;101995.09;4996126;28;20030;-74
2021/04/13 06:15:58;;;;;;;6.78;4.60;;;;;;;5.77;65.64;101990.69;4991326;28;20040;-75
2021/04/13 06:18:24;;;;;;;6.78;4.70;;;;;;;6.25;62.96;101995.91;4992140;28;20033;-77
2021/04/13 06:20:49;;;;;;;8.82;5.88;;;;;;;6.59;62.38;101995.66;4995116;28;20038;-76
2021/04/13 06:23:15;;;;;;;9.25;6.82;;;;;;;6.51;60.26;101991.78;4992401;28;20042;-76
2021/04/13 06:25:41;;;;;;;7.82;5.93;;;;;;;6.55;59.62;101996.78;5012022;28;20697;-76
2021/04/13 06:28:06;;;;;;;7.88;5.45;;;;;;;6.84;59.87;102001.22;5001371;28;20038;-76
2021/04/13 06:30:32;;;;;;;8.88;6.60;;;;;;;6.97;55.55;102002.22;4993433;28;20034;-75
2021/04/13 06:32:58;;;;;;;8.27;5.95;;;;;;;6.89;59.11;102010.56;4997656;28;20072;-75
2021/04/13 06:35:25;;;;;;;8.20;5.72;;;;;;;7.17;59.18;102006.25;5011056;28;20433;-75
2021/04/13 06:37:54;;;;;;;8.52;5.55;;;;;;;7.12;56.45;102008.31;5013116;28;20530;-76
2021/04/13 06:40:28;;;;;;;9.50;5.80;;;;;;;7.53;57.07;102012.81;5011782;28;20038;-76
2021/04/13 06:43:05;;;;;;;10.23;6.50;;;;;;;8.33;52.89;102026.19;4998609;28;20038;-76
2021/04/13 06:46:10;;;;;;;10.63;6.95;;;;;;;8.44;51.09;102021.94;4994475;28;20069;-76
2021/04/13 06:49:13;;;;;;;8.38;5.90;;;;;;;8.47;51.74;102020.88;5003991;28;20088;-75
2021/04/13 06:52:03;;;;;;;26.50;12.65;;;;;;;8.80;49.94;102014.31;4920415;29;20040;-76
2021/04/13 06:54:43;;;;;;;14.65;7.15;;;;;;;8.93;52.82;102017.78;5009529;28;20029;-75
2021/04/13 06:57:32;;;;;;;13.27;8.65;;;;;;;9.49;47.90;102023.59;5012431;28;20058;-76
2021/04/13 07:00:21;;;;;;;26.25;10.35;;;;;;;9.07;49.84;102022.97;5007174;28;20551;-76
2021/04/13 07:03:21;;;;;;;15.18;8.75;;;;;;;10.13;48.11;102025.19;4998493;28;20034;-76
2021/04/13 07:05:53;;;;;;;7.80;5.78;;;;;;;10.24;47.02;102019.97;5003971;28;20116;-76
2021/04/13 07:08:33;;;;;;;9.05;7.47;;;;;;;10.90;45.13;102017.72;5001911;28;20039;-76
2021/04/13 07:11:04;;;;;;;7.05;4.70;;;;;;;10.40;49.05;102025.00;4999149;28;20124;-73
2021/04/13 07:13:50;;;;;;;7.82;5.10;;;;;;;10.56;46.72;102025.56;5003296;28;20096;-76
2021/04/13 07:16:18;;;;;;;9.50;6.88;;;;;;;10.69;47.77;102030.78;5002955;28;20049;-74
2021/04/13 07:18:57;;;;;;;9.63;6.85;;;;;;;10.60;47.01;102034.09;5011643;28;20066;-74
2021/04/13 07:21:37;;;;;;;9.50;7.10;;;;;;;9.78;47.87;102032.09;5010534;28;20066;-76
2021/04/13 07:24:41;;;;;;;10.85;7.80;;;;;;;10.19;48.28;102040.63;5010642;28;20042;-75
2021/04/13 07:27:12;;;;;;;10.73;8.15;;;;;;;9.49;48.38;102043.88;5004600;28;20394;-76
2021/04/13 07:29:45;;;;;;;11.77;9.83;;;;;;;9.16;49.69;102036.50;5004177;28;20509;-76
2021/04/13 07:32:14;;;;;;;11.93;8.57;;;;;;;9.67;47.56;102033.81;5010017;28;20041;-76
2021/04/13 07:34:41;;;;;;;12.50;8.15;;;;;;;9.93;48.97;102039.88;5003210;28;20038;-76
2021/04/13 07:37:21;;;;;;;13.73;8.40;;;;;;;10.60;46.84;102042.03;4993048;28;20034;-75
2021/04/13 07:39:50;;;;;;;10.93;9.10;;;;;;;10.49;46.61;102042.84;5004922;28;20061;-75
2021/04/13 07:42:30;;;;;;;10.15;7.75;;;;;;;10.65;47.72;102044.34;5001489;28;20129;-76
2021/04/13 07:44:59;;;;;;;9.68;6.20;;;;;;;11.03;46.52;102036.13;4991771;28;20130;-75
2021/04/13 07:48:02;;;;;;;10.63;7.78;;;;;;;11.65;47.23;102043.63;5009668;28;20061;-76
2021/04/13 07:50:55;;;;;;;9.95;8.45;;;;;;;12.53;44.73;102036.56;4990446;28;20503;-76
2021/04/13 07:53:45;;;;;;;11.60;9.23;;;;;;;12.58;41.86;102042.34;4991397;28;20233;-75
2021/04/13 07:56:35;;;;;;;9.48;7.57;;;;;;;12.33;41.55;102041.72;4994536;28;20034;-76
2021/04/13 07:59:34;;;;;;;11.77;9.50;;;;;;;11.44;44.53;102047.97;4998007;28;20507;-76
2021/04/13 08:02:00;;;;;;;11.18;8.43;;;;;;;12.15;42.71;102045.03;5009109;28;20041;-75
2021/04/13 08:04:28;;;;;;;10.90;8.82;;;;;;;12.90;42.58;102044.13;5009540;28;20029;-76
2021/04/13 08:07:14;;;;;;;10.60;9.13;;;;;;;12.51;43.29;102044.69;5003089;28;20050;-76
2021/04/13 08:09:46;;;;;;;9.15;7.38;;;;;;;12.80;45.00;102041.41;4999112;28;20424;-75
2021/04/13 08:12:33;;;;;;;12.18;8.90;;;;;;;13.20;42.23;102045.13;4990362;28;20080;-75
2021/04/13 08:15:19;;;;;;;12.70;10.65;;;;;;;13.69;41.19;102049.72;5007029;28;20042;-75
2021/04/13 08:18:21;;;;;;;11.77;10.07;;;;;;;13.49;42.36;102056.78;5003642;28;20418;-76
2021/04/13 08:20:48;;;;;;;10.73;8.77;;;;;;;12.86;41.89;102046.19;4999061;28;20065;-75
2021/04/13 08:23:36;;;;;;;11.70;9.50;;;;;;;11.30;44.19;102050.84;5004797;28;20034;-76
2021/04/13 08:26:30;;;;;;;13.38;10.93;;;;;;;10.71;45.77;102039.44;5010454;28;20033;-76
2021/04/13 08:29:00;;;;;;;10.68;8.80;;;;;;;9.83;47.64;102038.84;5010390;28;20391;-75
2021/04/13 08:34:40;;;;;;;15.52;11.85;;;;;;;8.76;49.12;102041.84;4999881;28;20503;-77
2021/04/13 08:37:07;;;;;;;15.13;10.95;;;;;;;8.29;50.06;102031.66;4997356;28;20128;-75
2021/04/13 08:39:43;;;;;;;12.50;9.77;;;;;;;7.88;51.95;102040.41;5006677;28;20087;-76
2021/04/13 08:42:25;;;;;;;14.57;10.60;;;;;;;7.71;52.63;102024.84;5009472;28;20041;-75
2021/04/13 08:45:27;;;;;;;11.50;9.43;;;;;;;7.40;54.42;102029.38;4999011;28;20081;-76
2021/04/13 08:48:00;;;;;;;14.65;10.68;;;;;;;7.24;56.16;102033.88;4994080;28;20072;-76
2021/04/13 08:50:34;;;;;;;12.85;9.93;;;;;;;6.88;56.44;102032.50;4989707;28;20407;-76
2021/04/13 08:53:07;;;;;;;16.05;10.93;;;;;;;7.72;55.84;102033.59;4991152;28;20038;-75
2021/04/13 08:55:35;;;;;;;15.48;12.20;;;;;;;9.43;51.13;102039.84;5008856;28;20117;-76
2021/04/13 08:58:19;;;;;;;18.63;13.23;;;;;;;11.22;46.78;102040.84;5002851;28;20050;-76
2021/04/13 09:00:48;;;;;;;16.77;13.20;;;;;;;11.40;45.71;102041.25;5003704;28;20026;-76
2021/04/13 09:03:43;;;;;;;14.07;10.80;;;;;;;12.37;44.12;102025.53;5009781;28;20042;-76
2021/04/13 09:06:37;;;;;;;11.77;8.40;;;;;;;13.28;42.97;102030.25;5000435;28;20384;-76
2021/04/13 09:09:11;;;;;;;11.60;9.02;;;;;;;14.55;40.96;102031.38;4987582;28;20038;-76
2021/04/13 09:11:53;;;;;;;13.60;10.13;;;;;;;14.62;38.86;102035.16;5001726;28;20030;-76
2021/04/13 09:14:31;;;;;;;10.77;8.05;;;;;;;14.18;36.50;102032.06;5001474;28;20492;-75
2021/04/13 09:17:02;;;;;;;12.27;9.82;;;;;;;13.71;36.43;102029.16;5009490;28;20034;-76
2021/04/13 09:19:34;;;;;;;11.63;8.80;;;;;;;13.68;36.94;102034.75;5009661;28;20037;-76
2021/04/13 09:22:13;;;;;;;10.00;8.32;;;;;;;12.59;37.21;102028.13;5009568;28;20117;-76
2021/04/13 09:24:42;;;;;;;9.95;7.78;;;;;;;11.20;40.63;102029.53;5009469;28;20563;-77
2021/04/13 09:27:39;;;;;;;9.20;7.30;;;;;;;12.08;36.37;102034.94;5009266;28;20395;-75
2021/04/13 09:30:25;;;;;;;5.47;4.18;;;;;;;12.17;37.21;102029.84;5005901;28;20034;-76
2021/04/13 09:33:02;;;;;;;6.28;5.28;;;;;;;11.91;36.47;102024.84;5008667;28;20064;-76
2021/04/13 09:35:49;;;;;;;7.13;5.35;;;;;;;12.13;39.75;102034.53;5009534;28;20034;-75
2021/04/13 09:38:59;;;;;;;7.63;5.82;;;;;;;13.03;36.94;102022.66;5009070;28;20450;-76
2021/04/13 09:42:02;;;;;;;8.05;6.50;;;;;;;12.45;37.58;102020.47;5008995;28;20041;-75
2021/04/13 09:44:36;;;;;;;9.77;8.00;;;;;;;11.85;36.39;102022.66;4994118;28;20041;-75
2021/04/13 09:47:26;;;;;;;9.30;7.68;;;;;;;11.07;37.93;102016.41;5005036;28;20034;-74
2021/04/13 09:50:23;;;;;;;9.25;7.47;;;;;;;10.86;37.99;102010.13;5013140;28;20057;-75
2021/04/13 09:53:10;;;;;;;8.20;6.40;;;;;;;10.67;39.19;102010.69;4992205;28;20504;-75
2021/04/13 09:56:02;;;;;;;7.20;5.88;;;;;;;10.83;38.72;102006.75;5005110;28;20041;-76
2021/04/13 09:58:53;;;;;;;6.43;5.10;;;;;;;11.13;39.00;102008.00;5012803;28;20437;-75
2021/04/13 10:01:37;;;;;;;9.38;6.45;;;;;;;11.15;39.42;102006.06;5012851;28;20507;-76
2021/04/13 10:04:19;;;;;;;8.57;6.20;;;;;;;11.31;37.00;102008.38;5005486;28;20495;-75
2021/04/13 10:07:16;;;;;;;8.88;6.30;;;;;;;11.19;37.39;101996.94;5005409;28;20223;-76
2021/04/13 10:09:43;;;;;;;7.28;5.10;;;;;;;10.67;35.01;101998.28;5012530;28;20120;-76
2021/04/13 10:12:35;;;;;;;7.45;5.22;;;;;;;10.88;36.29;101989.69;5003041;28;20038;-75
2021/04/13 10:15:16;;;;;;;8.68;6.22;;;;;;;10.04;36.59;101994.19;4990592;28;20141;-75
2021/04/13 10:18:10;;;;;;;8.10;5.07;;;;;;;9.93;34.89;101992.31;5012418;28;20096;-73
2021/04/13 10:20:50;;;;;;;6.95;4.90;;;;;;;8.89;37.38;101993.44;5002059;28;20487;-75
2021/04/13 10:23:40;;;;;;;7.60;5.00;;;;;;;8.71;36.60;101992.88;4996798;28;20037;-73
2021/04/13 10:26:36;;;;;;;6.50;4.53;;;;;;;8.82;34.91;101992.16;5010480;28;20368;-75
2021/04/13 10:29:18;;;;;;;7.00;5.43;;;;;;;9.05;35.27;101982.66;5012161;28;20064;-74
2021/04/13 10:32:05;;;;;;;5.82;4.57;;;;;;;8.98;40.33;101981.38;5011729;28;20177;-76
2021/04/13 10:34:53;;;;;;;5.30;3.30;;;;;;;9.17;34.09;101985.41;5011107;28;20030;-75
2021/04/13 10:37:43;;;;;;;7.00;5.53;;;;;;;9.71;34.54;101974.53;4994378;28;20109;-74
2021/04/13 10:40:11;;;;;;;6.68;5.25;;;;;;;9.45;37.31;101976.38;4993297;28;20041;-74
2021/04/13 10:43:10;;;;;;;7.40;4.85;;;;;;;9.53;35.45;101968.75;5003244;28;20117;-75
2021/04/13 10:46:05;;;;;;;5.90;4.63;;;;;;;9.52;35.41;101973.19;5007991;28;20086;-76
2021/04/13 10:48:57;;;;;;;6.60;4.78;;;;;;;9.20;34.52;101962.28;4986254;28;20030;-74
2021/04/13 10:51:50;;;;;;;;;;;;;;;9.23;36.29;101966.50;5012050;28;20038;-74
2021/04/13 10:54:32;;;;;;;6.72;4.65;;;;;;;9.46;36.87;101963.09;5010129;28;19914;-76
2021/04/13 10:57:25;;;;;;;5.85;4.07;;;;;;;9.52;37.74;101959.16;5003369;28;20617;-75
2021/04/13 11:00:05;;;;;;;6.63;4.63;;;;;;;9.73;36.37;101962.06;5009425;28;20034;-73
2021/04/13 11:02:59;;;;;;;5.85;4.70;;;;;;;9.84;34.10;101954.19;4991716;28;20034;-76
2021/04/13 11:05:50;;;;;;;5.43;4.10;;;;;;;9.71;35.43;101954.22;5011033;28;20502;-75
2021/04/13 11:08:53;;;;;;;6.05;4.45;;;;;;;9.93;36.34;101942.94;5008254;28;20091;-76
2021/04/13 11:11:32;;;;;;;6.43;4.25;;;;;;;10.11;36.85;101950.47;4968370;28;20127;-76
2021/04/13 11:14:15;;;;;;;5.82;4.55;;;;;;;10.17;38.75;101955.31;4994360;28;20085;-76
2021/04/13 11:16:50;;;;;;;6.57;4.43;;;;;;;10.25;34.79;101945.00;5010931;28;20092;-77
2021/04/13 11:19:55;;;;;;;4.95;3.55;;;;;;;10.11;38.31;101942.56;5011498;28;20109;-76
2021/04/13 11:22:39;;;;;;;6.05;3.97;;;;;;;10.19;37.05;101946.28;5000796;28;20073;-75
2021/04/13 11:25:42;;;;;;;7.47;4.72;;;;;;;10.37;34.29;101940.63;4999416;28;20041;-75
2021/04/13 11:28:45;;;;;;;6.60;3.97;;;;;;;10.31;33.55;101947.22;5010356;28;20435;-75
2021/04/13 11:31:14;;;;;;;6.25;3.63;;;;;;;10.09;32.89;101934.72;4992809;28;20034;-74
2021/04/13 11:33:48;;;;;;;5.82;3.88;;;;;;;10.11;34.66;101929.34;4986519;28;20025;-75
2021/04/13 11:36:25;;;;;;;4.68;3.35;;;;;;;10.48;34.43;101937.16;5001870;28;20034;-75
2021/04/13 11:38:53;;;;;;;6.47;3.70;;;;;;;10.29;34.81;101927.97;4992941;28;20030;-75
2021/04/13 11:41:23;;;;;;;6.07;3.97;;;;;;;9.79;33.89;101927.25;5010120;28;20050;-74
2021/04/13 11:44:21;;;;;;;6.35;4.05;;;;;;;9.73;34.12;101928.56;5009998;28;20045;-75
2021/04/13 11:46:46;;;;;;;4.38;3.38;;;;;;;9.72;36.21;101928.66;4996240;28;20495;-75
2021/04/13 11:49:11;;;;;;;6.00;3.73;;;;;;;10.00;34.03;101922.19;4992299;28;20052;-75
2021/04/13 11:51:50;;;;;;;6.10;4.20;;;;;;;10.11;34.04;101926.69;5002041;28;20296;-76
2021/04/13 11:54:55;;;;;;;6.25;4.20;;;;;;;10.03;35.07;101924.59;5001504;28;20097;-75
2021/04/13 11:57:23;;;;;;;6.00;3.92;;;;;;;9.65;37.11;101922.13;4989129;28;20050;-76
2021/04/13 12:00:10;;;;;;;5.13;3.95;;;;;;;9.62;35.70;101936.41;4995046;28;20034;-74
2021/04/13 12:02:38;;;;;;;7.07;4.05;;;;;;;8.92;36.60;101935.19;5001215;28;20040;-75
2021/04/13 12:05:04;;;;;;;5.63;3.45;;;;;;;9.00;37.22;101932.00;4997856;28;20034;-75
2021/04/13 12:07:49;;;;;;;5.10;3.38;;;;;;;9.21;37.40;101929.66;4990493;28;20499;-74
2021/04/13 12:10:27;;;;;;;5.70;3.78;;;;;;;9.37;35.97;101932.06;5007037;28;20038;-74
2021/04/13 12:12:53;;;;;;;5.82;3.67;;;;;;;9.63;34.98;101921.41;5007856;28;20045;-75
2021/04/13 12:15:18;;;;;;;4.40;3.20;;;;;;;9.93;34.89;101923.59;5003192;28;20117;-75